Time;durP1;ratioP1;P1;durP2;ratioP2;P2;SDS_P1;SDS_P2;PMS_P1;PMS_P2;Temp;Humidity;BMP_temperature;BMP_pressure;BME280_temperature;BME280_humidity;BME280_pressure;Samples;Min_cycle;Max_cycle;Signal;HPM_P1;HPM_P2
2021/04/30 00:02:26;;;;;;;;;;;;;;;;;;7299084;40;1025;-24
2021/04/30 00:07:46;;;;;;;;;;;;;;;;;;7298853;40;1932;-26
2021/04/30 00:13:07;;;;;;;;;;;;;;;;;;7298605;40;1438;-25
2021/04/30 00:18:27;;;;;;;;;;;;;;;;;;7298882;40;1311;-25
2021/04/30 00:23:47;;;;;;;;;;;;;;;;;;7298409;40;1193;-25
2021/04/30 00:29:08;;;;;;;;;;;;;;;;;;7317921;40;1929;-25
2021/04/30 00:34:29;;;;;;;;;;;;;;;;;;7323840;40;927;-26
2021/04/30 00:39:49;;;;;;;;;;;;;;;;;;7318278;40;1326;-25
2021/04/30 00:45:14;;;;;;;;;;;;;;;;;;7314302;40;1938;-25
2021/04/30 00:50:35;;;;;;;;;;;;;;;;;;7298174;40;1001;-25
2021/04/30 00:55:55;;;;;;;;;;;;;;;;;;7298174;40;964;-25
2021/04/30 01:01:16;;;;;;;;;;;;;;;;;;7303802;40;977;-26
2021/04/30 01:06:51;;;;;;;;;;;;;;;;;;7297904;40;1925;-25
2021/04/30 01:12:25;;;;;;;;;;;;;;;;;;7297620;40;1073;-25
2021/04/30 01:18:01;;;;;;;;;;;;;;;;;;7296294;40;1316;-25
2021/04/30 01:23:21;;;;;;;;;;;;;;;;;;7297971;40;1089;-25
2021/04/30 01:28:42;;;;;;;;;;;;;;;;;;7316101;40;1938;-25
2021/04/30 01:34:17;;;;;;;;;;;;;;;;;;7318349;40;981;-25
2021/04/30 01:39:38;;;;;;;;;;;;;;;;;;7319062;40;1437;-26
2021/04/30 01:44:59;;;;;;;;;;;;;;;;;;7297624;40;1945;-25
2021/04/30 01:50:19;;;;;;;;;;;;;;;;;;7297522;40;1365;-25
2021/04/30 01:55:40;;;;;;;;;;;;;;;;;;7297327;40;1058;-24
2021/04/30 02:01:00;;;;;;;;;;;;;;;;;;7297526;40;1112;-25
2021/04/30 02:06:22;;;;;;;;;;;;;;;;;;7296774;40;1870;-25
2021/04/30 02:11:43;;;;;;;;;;;;;;;;;;7296972;40;1284;-25
2021/04/30 02:17:03;;;;;;;;;;;;;;;;;;7296947;40;1199;-25
2021/04/30 02:22:38;;;;;;;;;;;;;;;;;;7296182;40;1220;-25
2021/04/30 02:27:59;;;;;;;;;;;;;;;;;;7311466;40;2047;-25
2021/04/30 02:33:19;;;;;;;;;;;;;;;;;;7316948;40;1083;-25
2021/04/30 02:38:40;;;;;;;;;;;;;;;;;;7316966;40;1198;-26
2021/04/30 02:44:00;;;;;;;;;;;;;;;;;;7321446;40;1261;-25
2021/04/30 02:49:27;;;;;;;;;;;;;;;;;;7298380;40;1941;-27
2021/04/30 02:54:47;;;;;;;;;;;;;;;;;;7295920;40;1286;-25
2021/04/30 03:00:09;;;;;;;;;;;;;;;;;;7296453;40;1423;-23
2021/04/30 03:05:30;;;;;;;;;;;;;;;;;;7296502;40;1879;-25
2021/04/30 03:10:50;;;;;;;;;;;;;;;;;;7295885;40;1456;-26
2021/04/30 03:16:10;;;;;;;;;;;;;;;;;;7296151;40;1282;-25
2021/04/30 03:21:31;;;;;;;;;;;;;;;;;;7301334;40;1116;-24
2021/04/30 03:26:51;;;;;;;;;;;;;;;;;;7295762;40;1902;-25
2021/04/30 03:32:12;;;;;;;;;;;;;;;;;;7295842;40;1023;-26
2021/04/30 03:37:32;;;;;;;;;;;;;;;;;;7298886;40;1092;-25
2021/04/30 03:42:52;;;;;;;;;;;;;;;;;;7310831;40;1169;-25
2021/04/30 03:48:13;;;;;;;;;;;;;;;;;;7324309;40;1931;-25
2021/04/30 03:53:34;;;;;;;;;;;;;;;;;;7318759;40;1266;-25
2021/04/30 03:58:54;;;;;;;;;;;;;;;;;;7318313;40;1822;-25
2021/04/30 04:04:14;;;;;;;;;;;;;;;;;;7318912;40;1197;-25
2021/04/30 04:09:35;;;;;;;;;;;;;;;;;;7323441;40;1890;-25
2021/04/30 04:14:55;;;;;;;;;;;;;;;;;;7318664;40;1190;-25
2021/04/30 04:20:16;;;;;;;;;;;;;;;;;;7318539;40;1267;-25
2021/04/30 04:25:37;;;;;;;;;;;;;;;;;;7315074;40;1896;-25
2021/04/30 04:30:59;;;;;;;;;;;;;;;;;;7297903;40;1390;-24
2021/04/30 04:36:33;;;;;;;;;;;;;;;;;;7298334;40;977;-26
2021/04/30 04:41:55;;;;;;;;;;;;;;;;;;7303481;40;1051;-25
2021/04/30 04:47:15;;;;;;;;;;;;;;;;;;7303640;40;1914;-25
2021/04/30 04:52:35;;;;;;;;;;;;;;;;;;7318368;40;1111;-24
2021/04/30 04:57:55;;;;;;;;;;;;;;;;;;7318183;40;1033;-25
2021/04/30 05:03:16;;;;;;;;;;;;;;;;;;7323039;40;1574;-24
2021/04/30 05:08:36;;;;;;;;;;;;;;;;;;7317899;40;1883;-25
2021/04/30 05:13:57;;;;;;;;;;;;;;;;;;7317966;40;1282;-25
2021/04/30 05:19:17;;;;;;;;;;;;;;;;;;7317918;40;1200;-25
2021/04/30 05:24:40;;;;;;;;;;;;;;;;;;7317708;40;1262;-24
2021/04/30 05:30:00;;;;;;;;;;;;;;;;;;7298451;40;1886;-26
2021/04/30 05:35:21;;;;;;;;;;;;;;;;;;7296903;40;1682;-25
2021/04/30 05:40:41;;;;;;;;;;;;;;;;;;7303497;40;1097;-25
2021/04/30 05:46:02;;;;;;;;;;;;;;;;;;7317236;40;1878;-25
2021/04/30 05:51:22;;;;;;;;;;;;;;;;;;7316957;40;1141;-25
2021/04/30 05:56:43;;;;;;;;;;;;;;;;;;7322729;40;1145;-25
2021/04/30 06:02:04;;;;;;;;;;;;;;;;;;7322711;40;1207;-23
2021/04/30 06:07:24;;;;;;;;;;;;;;;;;;7317217;40;1869;-25
2021/04/30 06:12:44;;;;;;;;;;;;;;;;;;7316470;40;1273;-25
2021/04/30 06:18:05;;;;;;;;;;;;;;;;;;7316980;40;1360;-25
2021/04/30 06:23:25;;;;;;;;;;;;;;;;;;7317126;40;1252;-25
2021/04/30 06:29:00;;;;;;;;;;;;;;;;;;7307320;40;1909;-25
2021/04/30 06:34:21;;;;;;;;;;;;;;;;;;7301470;40;1547;-25
2021/04/30 06:39:41;;;;;;;;;;;;;;;;;;7301671;40;988;-26
2021/04/30 06:45:02;;;;;;;;;;;;;;;;;;7294187;40;1210;-25
2021/04/30 06:50:22;;;;;;;;;;;;;;;;;;7064923;40;10000541;-25
2021/04/30 06:55:43;;;;;;;;;;;;;;;;;;7313541;40;1089;-24
2021/04/30 07:01:03;;;;;;;;;;;;;;;;;;7312407;40;1000;-25
2021/04/30 07:06:24;;;;;;;;;;;;;;;;;;7312452;40;1939;-25
2021/04/30 07:11:44;;;;;;;;;;;;;;;;;;7315174;40;1568;-25
2021/04/30 07:17:04;;;;;;;;;;;;;;;;;;7316308;40;1298;-24
2021/04/30 07:22:25;;;;;;;;;;;;;;;;;;7314439;40;963;-25
2021/04/30 07:28:00;;;;;;;;;;;;;;;;;;7305169;40;1921;-25
2021/04/30 07:33:21;;;;;;;;;;;;;;;;;;7302286;40;1137;-27
2021/04/30 07:38:42;;;;;;;;;;;;;;;;;;7319244;40;971;-26
2021/04/30 07:44:03;;;;;;;;;;;;;;;;;;7323662;40;1727;-26
2021/04/30 07:49:38;;;;;;;;;;;;;;;;;;7323273;40;1947;-27
2021/04/30 07:55:02;;;;;;;;;;;;;;;;;;7318764;40;1005;-26
2021/04/30 08:00:22;;;;;;;;;;;;;;;;;;7323996;40;1115;-26
2021/04/30 08:05:43;;;;;;;;;;;;;;;;;;7310537;40;1944;-26
2021/04/30 08:11:03;;;;;;;;;;;;;;;;;;7318570;40;1097;-26
2021/04/30 08:16:24;;;;;;;;;;;;;;;;;;7321706;40;1373;-26
2021/04/30 08:21:45;;;;;;;;;;;;;;;;;;7317496;40;1335;-26
2021/04/30 08:27:05;;;;;;;;;;;;;;;;;;7298516;40;1972;-26
2021/04/30 08:32:26;;;;;;;;;;;;;;;;;;7298121;40;1091;-26
2021/04/30 08:37:46;;;;;;;;;;;;;;;;;;7298255;40;1010;-26
2021/04/30 08:43:07;;;;;;;;;;;;;;;;;;7298348;40;940;-27
2021/04/30 08:48:28;;;;;;;;;;;;;;;;;;7301584;40;1930;-26
2021/04/30 08:53:48;;;;;;;;;;;;;;;;;;7317288;40;1597;-27
2021/04/30 08:59:09;;;;;;;;;;;;;;;;;;7315216;40;983;-26
2021/04/30 09:04:45;;;;;;;;;;;;;;;;;;7319554;40;997;-26
2021/04/30 09:10:13;;;;;;;;;;;;;;;;;;7319283;40;1890;-26
2021/04/30 09:15:33;;;;;;;;;;;;;;;;;;7315239;40;2499;-26
2021/04/30 09:20:55;;;;;;;;;;;;;;;;;;7314855;40;967;-26
2021/04/30 09:26:31;;;;;;;;;;;;;;;;;;7313785;40;1878;-26
2021/04/30 09:31:51;;;;;;;;;;;;;;;;;;7293419;40;1186;-26
2021/04/30 09:37:17;;;;;;;;;;;;;;;;;;7294578;40;1134;-26
2021/04/30 09:43:01;;;;;;;;;;;;;;;;;;7299197;40;1033;-26
2021/04/30 09:48:21;;;;;;;;;;;;;;;;;;7314449;40;1895;-26
2021/04/30 09:53:42;;;;;;;;;;;;;;;;;;7314888;40;1000;-26
2021/04/30 09:59:03;;;;;;;;;;;;;;;;;;7319103;40;1312;-26
2021/04/30 10:04:24;;;;;;;;;;;;;;;;;;7314378;40;947;-26
2021/04/30 10:09:45;;;;;;;;;;;;;;;;;;7314020;40;1887;-26
2021/04/30 10:15:09;;;;;;;;;;;;;;;;;;7075221;40;10000532;-28
2021/04/30 10:20:29;;;;;;;;;;;;;;;;;;7313601;40;1301;-27
2021/04/30 10:25:50;;;;;;;;;;;;;;;;;;7313989;40;1873;-27
2021/04/30 10:31:12;;;;;;;;;;;;;;;;;;7294681;40;1214;-26
2021/04/30 10:36:34;;;;;;;;;;;;;;;;;;7293788;40;1141;-25
2021/04/30 10:41:55;;;;;;;;;;;;;;;;;;7293462;40;1209;-25
2021/04/30 10:47:30;;;;;;;;;;;;;;;;;;7295704;40;1970;-24
2021/04/30 10:52:53;;;;;;;;;;;;;;;;;;7296584;40;1141;-27
2021/04/30 10:58:29;;;;;;;;;;;;;;;;;;7295852;40;1476;-25
2021/04/30 11:04:16;;;;;;;;;;;;;;;;;;7307300;40;1307;-26
2021/04/30 11:09:37;;;;;;;;;;;;;;;;;;7295900;40;1875;-24
2021/04/30 11:15:02;;;;;;;;;;;;;;;;;;6694498;40;10000914;-20
2021/04/30 11:20:24;;;;;;;;;;;;;;;;;;7315935;40;1136;-45
2021/04/30 11:25:58;;;;;;;;;;;;;;;;;;7318141;40;1951;-37
2021/04/30 11:31:27;;;;;;;;;;;;;;;;;;7320582;40;1064;-37
2021/04/30 19:51:34;;;;;;;;;;;;;;;;;;7450204;39;1367;-14
2021/04/30 19:56:54;;;;;;;;;;;;;;;;;;7448212;39;1031;-12
2021/04/30 20:02:15;;;;;;;;;;;;;;;;;;7437694;39;1211;-14
2021/04/30 20:07:36;;;;;;;;;;;;;;;;;;7425286;40;1878;-11
2021/04/30 20:12:56;;;;;;;;;;;;;;;;;;7425192;40;1177;-12
2021/04/30 20:18:17;;;;;;;;;;;;;;;;;;7414089;40;950;-12
2021/04/30 20:23:38;;;;;;;;;;;;;;;;;;7414030;40;1305;-11
2021/04/30 20:28:58;;;;;;;;;;;;;;;;;;7413979;40;1889;-11
2021/04/30 20:34:19;;;;;;;;;;;;;;;;;;7407056;40;1018;-11
2021/04/30 20:39:39;;;;;;;;;;;;;;;;;;7404539;40;1009;-13
2021/04/30 20:45:02;;;;;;;;;;;;;;;;;;7403206;40;1059;-12
2021/04/30 20:50:26;;;;;;;;;;;;;;;;;;7403768;40;1939;-11
2021/04/30 20:55:47;;;;;;;;;;;;;;;;;;7403660;40;978;-11
2021/04/30 21:01:07;;;;;;;;;;;;;;;;;;7402583;40;990;-11
2021/04/30 21:06:27;;;;;;;;;;;;;;;;;;7415028;40;890;-12
2021/04/30 21:17:09;;;;;;;;;;;;;;;;;;7415059;40;960;-11
2021/04/30 21:22:30;;;;;;;;;;;;;;;;;;7414667;40;958;-12
2021/04/30 21:27:50;;;;;;;;;;;;;;;;;;7414594;40;1873;-12
2021/04/30 21:33:12;;;;;;;;;;;;;;;;;;7414562;40;968;-13
2021/04/30 21:38:32;;;;;;;;;;;;;;;;;;7414369;40;952;-13
2021/04/30 21:43:53;;;;;;;;;;;;;;;;;;7414715;40;1081;-12
2021/04/30 21:49:13;;;;;;;;;;;;;;;;;;7414182;40;1923;-12
2021/04/30 21:54:34;;;;;;;;;;;;;;;;;;7414644;40;987;-11
2021/04/30 21:59:54;;;;;;;;;;;;;;;;;;7414250;40;977;-12
2021/04/30 22:05:14;;;;;;;;;;;;;;;;;;7413198;40;1124;-12
2021/04/30 22:10:34;;;;;;;;;;;;;;;;;;7413286;40;1893;-12
2021/04/30 22:15:55;;;;;;;;;;;;;;;;;;7414015;40;877;-12
2021/04/30 22:21:16;;;;;;;;;;;;;;;;;;7411702;40;971;-13
2021/04/30 22:26:36;;;;;;;;;;;;;;;;;;7413872;40;896;-12
2021/04/30 22:31:56;;;;;;;;;;;;;;;;;;7412992;40;1064;-12
2021/04/30 22:37:17;;;;;;;;;;;;;;;;;;6107165;40;10002098;-9
2021/04/30 22:42:37;;;;;;;;;;;;;;;;;;6677912;40;10001023;-9
2021/04/30 22:47:58;;;;;;;;;;;;;;;;;;7337723;40;1918;-9
2021/04/30 22:53:18;;;;;;;;;;;;;;;;;;7337918;40;1016;-9
2021/04/30 22:58:38;;;;;;;;;;;;;;;;;;7335803;40;1077;-9
2021/04/30 23:03:59;;;;;;;;;;;;;;;;;;7338236;40;1307;-9
2021/04/30 23:09:19;;;;;;;;;;;;;;;;;;7333657;40;1929;-9
2021/04/30 23:14:40;;;;;;;;;;;;;;;;;;7315605;40;1209;-9
2021/04/30 23:20:00;;;;;;;;;;;;;;;;;;7317320;40;978;-9
2021/04/30 23:25:21;;;;;;;;;;;;;;;;;;7317118;40;1203;-10
2021/04/30 23:30:41;;;;;;;;;;;;;;;;;;7316989;40;1932;-11
2021/04/30 23:36:02;;;;;;;;;;;;;;;;;;7316906;40;1145;-10
2021/04/30 23:41:23;;;;;;;;;;;;;;;;;;7316931;40;1030;-10
2021/04/30 23:46:43;;;;;;;;;;;;;;;;;;7324370;40;1124;-10
2021/04/30 23:52:03;;;;;;;;;;;;;;;;;;7336901;40;966;-11
2021/04/30 23:57:24;;;;;;;;;;;;;;;;;;7337003;40;987;-10
